createdAt,value
2023-11-19T00:01:10.968Z,96391.91
2023-11-19T00:03:39.655Z,96392.00
2023-11-19T00:06:12.615Z,96395.50
2023-11-19T00:08:41.017Z,96386.38
2023-11-19T00:11:09.874Z,96394.03
2023-11-19T00:13:39.221Z,96391.50
2023-11-19T00:16:11.036Z,96386.50
2023-11-19T00:18:39.818Z,96373.38
2023-11-19T00:21:11.371Z,96369.31
2023-11-19T00:23:40.863Z,96363.56
2023-11-19T00:26:09.820Z,96366.91
2023-11-19T00:28:41.439Z,96365.25
2023-11-19T00:31:10.570Z,96365.22
2023-11-19T00:33:49.994Z,96360.09
2023-11-19T00:36:20.891Z,96363.41
2023-11-19T00:38:49.756Z,96355.13
2023-11-19T00:41:18.525Z,96355.22
2023-11-19T00:43:47.444Z,96349.38
2023-11-19T00:46:16.368Z,96340.94
2023-11-19T00:48:45.747Z,96333.44
2023-11-19T00:51:15.596Z,96282.38
2023-11-19T00:53:45.488Z,96338.09
2023-11-19T00:56:15.052Z,96343.97
2023-11-19T00:58:43.885Z,96332.22
2023-11-19T01:01:12.676Z,96321.22
2023-11-19T01:03:41.883Z,96316.03
2023-11-19T01:06:10.982Z,96330.28
2023-11-19T01:08:40.379Z,96314.34
2023-11-19T01:11:12.714Z,96309.56
2023-11-19T01:13:45.491Z,96302.03
2023-11-19T01:16:17.802Z,96292.94
2023-11-19T01:19:05.486Z,96281.31
2023-11-19T01:21:45.950Z,96286.22
2023-11-19T01:24:17.629Z,96273.56
2023-11-19T01:26:52.348Z,96268.66
2023-11-19T01:29:25.775Z,96253.59
2023-11-19T01:32:00.001Z,96260.22
2023-11-19T01:34:31.194Z,96252.59
2023-11-19T01:37:02.357Z,96249.28
2023-11-19T01:39:35.071Z,96241.66
2023-11-19T01:42:08.482Z,96243.41
2023-11-19T01:44:39.053Z,96232.38
2023-11-19T01:47:10.569Z,96238.13
2023-11-19T01:49:45.333Z,96231.22
2023-11-19T01:52:15.541Z,96227.03
2023-11-19T01:54:46.757Z,96226.97
2023-11-19T01:57:19.000Z,96222.69
2023-11-19T01:59:52.504Z,96236.97
2023-11-19T02:02:23.994Z,96220.91
2023-11-19T02:04:55.047Z,96209.19
2023-11-19T02:07:27.830Z,96203.28
2023-11-19T02:10:01.056Z,96195.66
2023-11-19T02:12:35.335Z,96194.72
2023-11-19T02:15:05.276Z,96191.28
2023-11-19T02:17:36.070Z,96192.03
2023-11-19T02:20:08.337Z,96180.22
2023-11-19T02:22:38.738Z,96174.50
2023-11-19T02:25:11.846Z,96179.53
2023-11-19T02:27:52.416Z,96179.41
2023-11-19T02:30:22.961Z,96169.38
2023-11-19T02:32:53.679Z,96170.22
2023-11-19T02:35:24.806Z,96161.09
2023-11-19T02:37:55.016Z,96155.22
2023-11-19T02:40:25.974Z,96155.91
2023-11-19T02:42:57.760Z,96153.31
2023-11-19T02:45:32.640Z,96137.25
2023-11-19T02:48:06.006Z,96124.69
2023-11-19T02:50:37.502Z,96133.09
2023-11-19T02:53:11.710Z,96140.59
2023-11-19T02:55:43.343Z,96139.78
2023-11-19T02:58:21.861Z,96135.53
2023-11-19T03:00:59.310Z,96140.53
2023-11-19T03:03:39.937Z,96127.09
2023-11-19T03:06:11.124Z,96112.66
2023-11-19T03:08:41.227Z,96107.66
2023-11-19T03:11:12.209Z,96105.06
2023-11-19T03:13:46.657Z,96097.44
2023-11-19T03:16:20.826Z,96093.34
2023-11-19T03:18:52.774Z,96091.03
2023-11-19T03:21:23.637Z,96093.63
2023-11-19T03:23:53.134Z,96093.63
2023-11-19T03:26:23.765Z,96090.28
2023-11-19T03:28:56.101Z,96091.03
2023-11-19T03:31:27.161Z,96084.94
2023-11-19T03:33:59.592Z,96089.91
2023-11-19T03:36:36.740Z,96086.66
2023-11-19T03:39:08.024Z,96079.34
2023-11-19T03:41:43.853Z,96075.03
2023-11-19T03:44:15.887Z,96069.84
2023-11-19T03:46:47.988Z,96058.78
2023-11-19T03:49:18.949Z,96051.97
2023-11-19T03:51:49.981Z,96055.28
2023-11-19T03:54:25.003Z,96056.03
2023-11-19T03:56:57.014Z,96050.16
2023-11-19T03:59:29.560Z,96045.94
2023-11-19T04:02:03.173Z,96042.47
2023-11-19T04:04:34.347Z,96044.09
2023-11-19T04:07:06.788Z,96042.38
2023-11-19T04:09:39.213Z,96039.03
2023-11-19T04:12:11.057Z,96037.41
2023-11-19T04:14:43.442Z,96032.38
2023-11-19T04:17:14.099Z,96034.19
2023-11-19T04:19:45.447Z,96039.31
2023-11-19T04:22:19.403Z,96031.75
2023-11-19T04:24:49.954Z,96029.94
2023-11-19T04:27:20.682Z,96030.69
2023-11-19T04:29:54.021Z,96024.78
2023-11-19T04:32:24.353Z,96023.88
2023-11-19T04:34:54.826Z,96025.63
2023-11-19T04:37:24.944Z,96020.50
2023-11-19T04:39:55.632Z,96022.09
2023-11-19T04:42:26.741Z,96011.81
2023-11-19T04:45:00.356Z,96019.41
2023-11-19T04:47:32.944Z,96006.69
2023-11-19T04:50:03.847Z,96005.81
2023-11-19T04:52:34.163Z,95998.25
2023-11-19T04:55:08.753Z,95994.81
2023-11-19T04:57:44.142Z,95991.38
2023-11-19T05:00:17.923Z,95993.88
2023-11-19T05:02:48.011Z,95999.78
2023-11-19T05:05:18.892Z,95995.63
2023-11-19T05:07:48.318Z,95996.50
2023-11-19T05:10:18.233Z,95992.19
2023-11-19T05:12:47.149Z,95994.72
2023-11-19T05:15:17.697Z,95988.81
2023-11-19T05:17:46.775Z,95994.66
2023-11-19T05:20:15.546Z,95991.44
2023-11-19T05:22:47.080Z,95989.81
2023-11-19T05:25:15.634Z,95989.81
2023-11-19T05:27:44.819Z,95984.69
2023-11-19T05:30:13.932Z,95975.41
2023-11-19T05:32:44.845Z,95971.97
2023-11-19T05:35:13.929Z,95971.91
2023-11-19T05:37:42.662Z,95978.75
2023-11-19T05:40:16.626Z,95972.88
2023-11-19T05:42:45.807Z,95969.59
2023-11-19T05:45:14.466Z,95961.00
2023-11-19T05:47:45.279Z,95965.16
2023-11-19T05:50:14.075Z,95966.84
2023-11-19T05:52:43.031Z,95967.69
2023-11-19T05:55:12.383Z,95968.59
2023-11-19T06:00:16.910Z,95929.31
2023-11-19T06:02:47.043Z,95957.78
2023-11-19T06:05:15.502Z,95952.66
2023-11-19T06:07:44.183Z,95945.75
2023-11-19T06:10:14.180Z,95937.19
2023-11-19T06:12:43.424Z,95941.38
2023-11-19T06:15:12.822Z,95948.13
2023-11-19T06:17:42.822Z,95943.00
2023-11-19T06:20:15.786Z,95930.34
2023-11-19T06:22:44.960Z,95932.06
2023-11-19T06:25:16.130Z,95936.22
2023-11-19T06:27:44.781Z,95934.50
2023-11-19T06:30:14.092Z,95921.16
2023-11-19T06:32:42.383Z,95927.16
2023-11-19T06:35:12.474Z,95926.31
2023-11-19T06:37:41.871Z,95934.13
2023-11-19T06:40:11.708Z,95942.69
2023-11-19T06:42:41.230Z,95926.78
2023-11-19T06:45:10.689Z,95906.50
2023-11-19T06:47:39.588Z,95919.81
2023-11-19T06:50:10.663Z,95924.69
2023-11-19T06:52:41.287Z,95934.66
2023-11-19T06:55:10.763Z,95931.94
2023-11-19T06:57:39.132Z,95925.06
2023-11-19T07:00:10.219Z,95917.56
2023-11-19T07:02:38.791Z,95926.88
2023-11-19T07:05:08.042Z,95925.28
2023-11-19T07:07:36.956Z,95918.31
2023-11-19T07:10:11.060Z,95913.84
2023-11-19T07:12:39.864Z,95905.22
2023-11-19T07:15:10.043Z,95915.09
2023-11-19T07:17:39.479Z,95907.44
2023-11-19T07:20:14.812Z,95898.88
2023-11-19T07:22:47.004Z,95892.13
2023-11-19T07:25:17.385Z,95891.28
2023-11-19T07:27:46.342Z,95912.19
2023-11-19T07:30:15.490Z,95895.16
2023-11-19T07:32:44.636Z,95888.38
2023-11-19T07:35:13.307Z,95886.66
2023-11-19T07:37:42.206Z,95888.06
2023-11-19T07:40:12.868Z,95877.03
2023-11-19T07:42:42.948Z,95887.09
2023-11-19T07:45:12.319Z,95884.72
2023-11-19T07:47:41.466Z,95873.84
2023-11-19T07:50:11.785Z,95866.25
2023-11-19T07:52:42.094Z,95865.47
2023-11-19T07:55:11.157Z,95868.72
2023-11-19T07:57:39.914Z,95867.41
2023-11-19T08:00:13.670Z,95861.94
2023-11-19T08:02:42.686Z,95874.22
2023-11-19T08:05:11.882Z,95859.63
2023-11-19T08:07:41.116Z,95871.81
2023-11-19T08:10:12.511Z,95867.25
2023-11-19T08:12:41.232Z,95870.19
2023-11-19T08:15:12.638Z,95877.50
2023-11-19T08:17:45.008Z,95874.19
2023-11-19T08:20:14.578Z,95867.97
2023-11-19T08:22:43.172Z,95875.91
2023-11-19T08:25:12.373Z,95886.44
2023-11-19T08:27:41.465Z,95883.66
2023-11-19T08:30:12.929Z,95882.69
2023-11-19T08:32:42.868Z,95880.97
2023-11-19T08:35:11.946Z,95866.00
2023-11-19T08:37:40.640Z,95872.16
2023-11-19T08:40:10.663Z,95880.16
2023-11-19T08:42:40.745Z,95879.81
2023-11-19T08:45:12.539Z,95866.00
2023-11-19T08:47:42.170Z,95863.38
2023-11-19T08:50:10.967Z,95864.94
2023-11-19T08:52:40.124Z,95856.34
2023-11-19T08:55:11.411Z,95857.97
2023-11-19T08:57:40.585Z,95846.09
2023-11-19T09:00:12.801Z,95829.09
2023-11-19T09:02:45.671Z,95827.78
2023-11-19T09:05:18.423Z,95822.94
2023-11-19T09:07:47.254Z,95811.63
2023-11-19T09:10:15.647Z,95818.78
2023-11-19T09:12:44.316Z,95810.19
2023-11-19T09:15:15.044Z,95810.34
2023-11-19T09:17:46.988Z,95808.31
2023-11-19T09:20:16.973Z,95767.28
2023-11-19T09:22:45.477Z,95811.03
2023-11-19T09:25:18.213Z,95798.78
2023-11-19T09:27:46.853Z,95817.56
2023-11-19T09:30:19.507Z,95806.84
2023-11-19T09:32:48.876Z,95803.91
2023-11-19T09:35:17.706Z,95778.25
2023-11-19T09:37:47.026Z,95779.34
2023-11-19T09:40:15.423Z,95782.19
2023-11-19T09:42:47.191Z,95777.88
2023-11-19T09:45:17.174Z,95775.38
2023-11-19T09:47:49.042Z,95723.91
2023-11-19T09:50:20.448Z,95776.84
2023-11-19T09:52:49.228Z,95775.47
2023-11-19T09:55:22.550Z,95774.97
2023-11-19T09:57:52.481Z,95778.34
2023-11-19T10:00:22.505Z,95782.19
2023-11-19T10:02:52.941Z,95772.56
2023-11-19T10:05:23.511Z,95777.22
2023-11-19T10:07:52.599Z,95770.84
2023-11-19T10:10:21.349Z,95763.91
2023-11-19T10:15:23.798Z,95741.50
2023-11-19T10:17:53.728Z,95765.22
2023-11-19T10:20:23.014Z,95761.63
2023-11-19T10:22:55.014Z,95759.88
2023-11-19T10:25:28.417Z,95759.06
2023-11-19T10:27:57.831Z,95756.63
2023-11-19T10:30:27.704Z,95749.66
2023-11-19T10:33:08.394Z,95753.59
2023-11-19T10:35:37.396Z,95741.97
2023-11-19T10:38:17.204Z,95737.34
2023-11-19T10:40:45.895Z,95745.13
2023-11-19T10:43:15.411Z,95690.22
2023-11-19T10:45:47.077Z,95739.63
2023-11-19T10:48:17.436Z,95737.31
2023-11-19T10:50:47.221Z,95746.94
2023-11-19T10:53:15.915Z,95726.63
2023-11-19T10:55:48.755Z,95723.16
2023-11-19T10:58:19.532Z,95737.41
2023-11-19T11:00:50.748Z,95731.13
2023-11-19T11:03:22.586Z,95737.53
2023-11-19T11:05:51.787Z,95732.59
2023-11-19T11:08:20.966Z,95688.59
2023-11-19T11:10:57.314Z,95732.69
2023-11-19T11:13:29.189Z,95729.94
2023-11-19T11:15:59.316Z,95730.16
2023-11-19T11:18:29.752Z,95734.09
2023-11-19T11:21:01.600Z,95735.41
2023-11-19T11:23:59.359Z,95724.28
2023-11-19T11:26:56.468Z,95733.97
2023-11-19T11:29:29.929Z,95721.59
2023-11-19T11:32:06.028Z,95720.72
2023-11-19T11:35:02.707Z,95723.34
2023-11-19T11:37:35.600Z,95727.97
2023-11-19T11:40:06.715Z,95724.66
2023-11-19T11:42:39.095Z,95704.50
2023-11-19T11:45:10.783Z,95717.69
2023-11-19T11:48:15.808Z,95723.94
2023-11-19T11:50:57.926Z,95735.47
2023-11-19T11:53:27.926Z,95720.50
2023-11-19T11:56:04.503Z,95735.03
2023-11-19T11:58:39.083Z,95724.22
2023-11-19T12:01:08.409Z,95713.84
2023-11-19T12:03:37.107Z,95710.00
2023-11-19T12:06:09.750Z,95718.03
2023-11-19T12:11:13.533Z,95707.84
2023-11-19T12:14:04.116Z,95701.53
2023-11-19T12:16:37.525Z,95708.06
2023-11-19T12:19:07.226Z,95706.25
2023-11-19T12:21:38.944Z,95701.19
2023-11-19T12:24:09.659Z,95681.00
2023-11-19T12:26:39.723Z,95709.53
2023-11-19T12:29:09.990Z,95683.50
2023-11-19T12:31:39.859Z,95702.69
2023-11-19T12:34:13.923Z,95694.94
2023-11-19T12:36:45.442Z,95696.84
2023-11-19T12:39:17.158Z,95685.38
2023-11-19T12:41:54.010Z,95683.63
2023-11-19T12:44:23.650Z,95688.50
2023-11-19T12:47:06.237Z,95678.06
2023-11-19T12:49:35.131Z,95694.69
2023-11-19T12:52:14.115Z,95689.72
2023-11-19T12:54:43.736Z,95707.41
2023-11-19T12:57:12.443Z,95703.19
2023-11-19T12:59:41.703Z,95696.72
2023-11-19T13:02:10.403Z,95700.41
2023-11-19T13:04:39.133Z,95687.69
2023-11-19T13:07:09.672Z,95689.72
2023-11-19T13:09:38.088Z,95689.19
2023-11-19T13:12:17.293Z,95681.06
2023-11-19T13:14:48.348Z,95682.56
2023-11-19T13:17:18.070Z,95682.56
2023-11-19T13:19:50.305Z,95687.97
2023-11-19T13:22:20.809Z,95687.97
2023-11-19T13:24:52.086Z,95691.34
2023-11-19T13:27:20.919Z,95686.31
2023-11-19T13:29:50.221Z,95685.63
2023-11-19T13:32:19.568Z,95675.97
2023-11-19T13:34:48.568Z,95680.84
2023-11-19T13:37:17.365Z,95671.06
2023-11-19T13:39:48.363Z,95665.09
2023-11-19T13:42:17.067Z,95672.50
2023-11-19T13:44:45.558Z,95659.41
2023-11-19T13:47:15.333Z,95667.75
2023-11-19T13:49:44.293Z,95668.56
2023-11-19T13:52:13.993Z,95672.78
2023-11-19T13:54:42.869Z,95658.84
2023-11-19T13:57:13.389Z,95671.25
2023-11-19T13:59:45.726Z,95659.63
2023-11-19T14:02:14.867Z,95660.31
2023-11-19T14:04:43.835Z,95649.25
2023-11-19T14:07:12.846Z,95657.91
2023-11-19T14:09:42.478Z,95648.63
2023-11-19T14:12:14.190Z,95650.78
2023-11-19T14:14:45.866Z,95658.72
2023-11-19T14:17:16.589Z,95663.59
2023-11-19T14:19:45.686Z,95659.72
2023-11-19T14:22:14.230Z,95664.03
2023-11-19T14:24:44.287Z,95678.88
2023-11-19T14:27:14.715Z,95683.19
2023-11-19T14:29:43.794Z,95599.94
2023-11-19T14:32:12.649Z,95684.91
2023-11-19T14:34:41.942Z,95680.13
2023-11-19T14:37:10.738Z,95675.53
2023-11-19T14:39:39.804Z,95675.69
2023-11-19T14:42:10.274Z,95677.00
2023-11-19T14:44:40.673Z,95675.75
2023-11-19T14:47:09.475Z,95676.28
2023-11-19T14:49:38.433Z,95665.03
2023-11-19T14:54:39.785Z,95681.84
2023-11-19T14:57:09.570Z,95686.53
2023-11-19T14:59:40.006Z,95679.47
2023-11-19T15:02:09.103Z,95676.47
2023-11-19T15:04:38.491Z,95672.56
2023-11-19T15:07:07.408Z,95666.44
2023-11-19T15:09:38.147Z,95684.00
2023-11-19T15:12:08.150Z,95682.53
2023-11-19T15:14:37.044Z,95677.66
2023-11-19T15:17:08.336Z,95689.06
2023-11-19T15:19:36.920Z,95677.00
2023-11-19T15:22:07.196Z,95684.50
2023-11-19T15:24:38.381Z,95690.00
2023-11-19T15:29:40.763Z,95685.72
2023-11-19T15:32:11.029Z,95674.34
2023-11-19T15:34:42.883Z,95663.41
2023-11-19T15:37:14.540Z,95664.75
2023-11-19T15:39:43.671Z,95653.72
2023-11-19T15:42:14.824Z,95658.75
2023-11-19T15:44:46.915Z,95673.03
2023-11-19T15:47:18.049Z,95659.94
2023-11-19T15:49:46.773Z,95663.75
2023-11-19T15:52:16.099Z,95660.63
2023-11-19T15:54:46.543Z,95649.97
2023-11-19T15:57:15.552Z,95640.13
2023-11-19T15:59:44.413Z,95638.47
2023-11-19T16:02:13.589Z,95648.22
2023-11-19T16:04:43.681Z,95651.00
2023-11-19T16:07:12.774Z,95658.56
2023-11-19T16:09:42.412Z,95681.41
2023-11-19T16:12:11.983Z,95656.00
2023-11-19T16:14:41.127Z,95649.97
2023-11-19T16:17:12.545Z,95660.28
2023-11-19T16:19:42.357Z,95660.53
2023-11-19T16:22:12.619Z,95666.81
2023-11-19T16:24:41.155Z,95671.09
2023-11-19T16:27:29.125Z,95685.34
2023-11-19T16:29:58.777Z,95667.16
2023-11-19T16:32:27.758Z,95665.88
2023-11-19T16:34:57.255Z,95646.81
2023-11-19T16:37:28.461Z,95632.78
2023-11-19T16:39:57.489Z,95635.69
2023-11-19T16:42:29.727Z,95635.94
2023-11-19T16:44:58.463Z,95643.25
2023-11-19T16:47:27.231Z,95652.19
2023-11-19T16:49:57.258Z,95651.59
2023-11-19T16:52:27.991Z,95645.44
2023-11-19T16:54:58.050Z,95636.41
2023-11-19T16:57:28.919Z,95641.50
2023-11-19T16:59:59.122Z,95645.31
2023-11-19T17:02:27.817Z,95650.78
2023-11-19T17:04:57.432Z,95639.41
2023-11-19T17:07:31.635Z,95654.44
2023-11-19T17:10:00.870Z,95649.56
2023-11-19T17:12:29.299Z,95665.09
2023-11-19T17:15:05.571Z,95669.84
2023-11-19T17:17:37.031Z,95671.78
2023-11-19T17:20:07.706Z,95673.88
2023-11-19T17:22:39.887Z,95668.16
2023-11-19T17:25:11.275Z,95662.72
2023-11-19T17:27:41.045Z,95666.00
2023-11-19T17:30:12.764Z,95664.16
2023-11-19T17:32:41.530Z,95674.09
2023-11-19T17:35:11.380Z,95681.75
2023-11-19T17:37:42.836Z,95679.56
2023-11-19T17:40:14.732Z,95689.41
2023-11-19T17:42:43.664Z,95681.66
2023-11-19T17:45:12.459Z,95671.81
2023-11-19T17:47:43.330Z,95663.38
2023-11-19T17:52:47.018Z,95665.25
2023-11-19T17:55:16.539Z,95659.91
2023-11-19T17:57:46.596Z,95656.56
2023-11-19T18:00:15.903Z,95670.84
2023-11-19T18:02:47.145Z,95662.97
2023-11-19T18:05:16.058Z,95661.91
2023-11-19T18:07:46.558Z,95661.91
2023-11-19T18:10:18.933Z,95668.66
2023-11-19T18:12:47.911Z,95649.84
2023-11-19T18:15:16.980Z,95653.34
2023-11-19T18:17:46.004Z,95663.31
2023-11-19T18:20:16.761Z,95658.22
2023-11-19T18:22:49.315Z,95645.91
2023-11-19T18:25:19.608Z,95652.53
2023-11-19T18:27:48.858Z,95660.09
2023-11-19T18:30:17.882Z,95649.75
2023-11-19T18:32:47.333Z,95645.44
2023-11-19T18:35:18.392Z,95663.09
2023-11-19T18:37:48.927Z,95671.22
2023-11-19T18:40:20.523Z,95668.66
2023-11-19T18:42:53.060Z,95680.25
2023-11-19T18:45:24.115Z,95676.19
2023-11-19T18:47:55.557Z,95667.50
2023-11-19T18:50:24.864Z,95675.84
2023-11-19T18:52:55.968Z,95674.22
2023-11-19T18:55:25.297Z,95674.69
2023-11-19T18:57:54.045Z,95678.97
2023-11-19T19:00:22.997Z,95690.72
2023-11-19T19:05:24.681Z,95698.72
2023-11-19T19:07:58.046Z,95692.34
2023-11-19T19:10:29.210Z,95685.47
2023-11-19T19:12:57.936Z,95672.47
2023-11-19T19:15:29.094Z,95671.19
2023-11-19T19:18:00.428Z,95659.50
2023-11-19T19:20:29.105Z,95669.38
2023-11-19T19:22:59.750Z,95694.19
2023-11-19T19:25:29.445Z,95706.13
2023-11-19T19:28:22.549Z,95704.16
2023-11-19T19:30:47.518Z,95691.53
2023-11-19T19:33:16.454Z,95700.00
2023-11-19T19:35:45.586Z,95696.03
2023-11-19T19:38:15.672Z,95698.47
2023-11-19T19:40:44.831Z,95687.22
2023-11-19T19:43:14.135Z,95686.53
2023-11-19T19:45:44.634Z,95686.41
2023-11-19T19:48:14.083Z,95694.19
2023-11-19T19:50:42.670Z,95690.34
2023-11-19T19:53:12.315Z,95683.72
2023-11-19T19:55:42.716Z,95696.13
2023-11-19T19:58:13.291Z,95694.28
2023-11-19T20:00:42.773Z,95691.38
2023-11-19T20:03:11.599Z,95699.63
2023-11-19T20:05:41.520Z,95707.06
2023-11-19T20:08:10.468Z,95713.78
2023-11-19T20:10:39.371Z,95684.31
2023-11-19T20:13:11.616Z,95698.38
2023-11-19T20:15:40.608Z,95687.91
2023-11-19T20:18:11.516Z,95701.84
2023-11-19T20:20:42.134Z,95709.03
2023-11-19T20:23:10.908Z,95705.22
2023-11-19T20:25:39.506Z,95712.06
2023-11-19T20:28:10.012Z,95702.16
2023-11-19T20:30:44.462Z,95706.22
2023-11-19T20:33:13.239Z,95708.56
2023-11-19T20:35:41.819Z,95709.00
2023-11-19T20:38:10.364Z,95710.31
2023-11-19T20:40:40.105Z,95715.19
2023-11-19T20:43:10.989Z,95719.97
2023-11-19T20:45:40.514Z,95722.06
2023-11-19T20:48:09.549Z,95724.22
2023-11-19T20:50:38.928Z,95717.28
2023-11-19T20:53:09.544Z,95726.47
2023-11-19T20:55:39.797Z,95724.00
2023-11-19T20:58:10.979Z,95648.78
2023-11-19T21:00:47.728Z,95713.22
2023-11-19T21:03:17.358Z,95725.59
2023-11-19T21:05:55.344Z,95721.78
2023-11-19T21:08:24.424Z,95719.66
2023-11-19T21:10:53.474Z,95719.78
2023-11-19T21:13:23.926Z,95720.72
2023-11-19T21:15:58.754Z,95706.31
2023-11-19T21:18:28.217Z,95708.06
2023-11-19T21:20:57.313Z,95695.88
2023-11-19T21:23:26.384Z,95689.50
2023-11-19T21:25:54.865Z,95702.03
2023-11-19T21:28:27.971Z,95711.44
2023-11-19T21:30:59.757Z,95745.31
2023-11-19T21:33:29.450Z,95772.69
2023-11-19T21:35:59.868Z,95778.53
2023-11-19T21:38:28.985Z,95796.88
2023-11-19T21:40:57.604Z,95787.63
2023-11-19T21:43:28.093Z,95789.25
2023-11-19T21:45:57.424Z,95802.97
2023-11-19T21:48:26.419Z,95800.63
2023-11-19T21:50:55.242Z,95805.19
2023-11-19T21:53:23.950Z,95779.16
2023-11-19T21:59:06.888Z,95757.91
2023-11-19T22:01:35.932Z,95754.53
2023-11-19T22:04:05.669Z,95747.69
2023-11-19T22:06:34.251Z,95755.13
2023-11-19T22:09:03.545Z,95753.94
2023-11-19T22:11:33.849Z,95750.16
2023-11-19T22:14:02.640Z,95747.91
2023-11-19T22:16:32.951Z,95734.44
2023-11-19T22:19:01.280Z,95728.75
2023-11-19T22:21:30.146Z,95729.69
2023-11-19T22:23:59.494Z,95739.56
2023-11-19T22:26:28.572Z,95755.72
2023-11-19T22:28:57.658Z,95771.38
2023-11-19T22:31:27.781Z,95756.16
2023-11-19T22:34:00.209Z,95770.22
2023-11-19T22:36:28.348Z,95743.75
2023-11-19T22:38:57.915Z,95733.78
2023-11-19T22:41:26.408Z,95751.78
2023-11-19T22:43:54.893Z,95684.69
2023-11-19T22:46:23.538Z,95749.78
2023-11-19T22:48:54.267Z,95757.09
2023-11-19T22:51:25.373Z,95747.94
2023-11-19T22:53:57.100Z,95737.00
2023-11-19T22:56:26.501Z,95727.38
2023-11-19T22:58:55.507Z,95721.94
2023-11-19T23:01:24.283Z,95719.03
2023-11-19T23:03:53.226Z,95726.22
2023-11-19T23:06:24.304Z,95720.19
2023-11-19T23:08:53.109Z,95732.97
2023-11-19T23:11:21.427Z,95734.00
2023-11-19T23:13:50.136Z,95754.53
2023-11-19T23:16:21.922Z,95752.44
2023-11-19T23:18:50.747Z,95752.69
2023-11-19T23:21:22.037Z,95744.19
2023-11-19T23:23:52.097Z,95737.34
2023-11-19T23:26:21.454Z,95739.91
2023-11-19T23:28:52.470Z,95758.84
2023-11-19T23:31:23.554Z,95761.50
2023-11-19T23:33:52.583Z,95761.41
2023-11-19T23:36:21.853Z,95764.28
2023-11-19T23:38:52.125Z,95761.03
2023-11-19T23:41:21.090Z,95773.13
2023-11-19T23:43:50.520Z,95774.50
2023-11-19T23:46:20.714Z,95768.50
2023-11-19T23:51:21.659Z,95778.34
2023-11-19T23:53:52.079Z,95779.16
2023-11-19T23:56:20.815Z,95775.09
2023-11-19T23:58:49.855Z,95764.44
